Terminal Aerodrome Forecast
Issued by NWS Springfield, MO

Home | Current Version | Previous Version | Text Only | Print | Product List | Glossary On
Versions: 1 2 3 4 5 6 7 8 9 10 11 12 13 14 15 16 17 18
000
FTUS43 KSGF 221722
TAFSGF
TAF
KSGF 221722Z 2218/2318 11012G20KT P6SM BKN150
     FM231100 15013G22KT P6SM -DZ SCT025 OVC040
     FM231700 16014G22KT P6SM SCT150=

USA.gov is the U.S. government's official web portal to all federal, state and local government web resources and services.